createdAt,value
2019-01-26T00:02:07.294Z,40.60
2019-01-26T00:04:34.461Z,40.57
2019-01-26T00:07:01.953Z,35.00
2019-01-26T00:09:29.122Z,36.13
2019-01-26T00:11:56.237Z,30.70
2019-01-26T00:14:23.459Z,36.40
2019-01-26T00:16:50.715Z,30.13
2019-01-26T00:19:17.880Z,34.80
2019-01-26T00:21:45.025Z,33.80
2019-01-26T00:24:12.200Z,35.63
2019-01-26T00:26:39.616Z,30.90
2019-01-26T00:29:06.824Z,33.47
2019-01-26T00:31:34.284Z,33.30
2019-01-26T00:34:01.484Z,34.20
2019-01-26T00:36:28.958Z,32.50
2019-01-26T00:38:56.116Z,33.57
2019-01-26T00:41:23.590Z,36.83
2019-01-26T00:43:50.769Z,33.67
2019-01-26T00:46:17.975Z,32.53
2019-01-26T00:48:45.156Z,31.67
2019-01-26T00:51:17.103Z,33.83
2019-01-26T00:53:41.736Z,38.67
2019-01-26T00:56:08.988Z,31.87
2019-01-26T00:58:36.090Z,34.03
2019-01-26T01:01:03.502Z,30.80
2019-01-26T01:03:30.770Z,32.53
2019-01-26T01:05:58.011Z,31.73
2019-01-26T01:08:25.502Z,36.87
2019-01-26T01:10:52.669Z,29.20
2019-01-26T01:13:20.235Z,35.13
2019-01-26T01:15:47.389Z,32.37
2019-01-26T01:18:14.727Z,31.07
2019-01-26T01:20:41.805Z,33.17
2019-01-26T01:23:09.431Z,33.67
2019-01-26T01:25:36.608Z,41.77
2019-01-26T01:28:04.173Z,32.83
2019-01-26T01:30:31.342Z,30.80
2019-01-26T01:32:58.697Z,29.83
2019-01-26T01:35:26.028Z,29.43
2019-01-26T01:37:53.142Z,35.87
2019-01-26T01:40:20.195Z,33.90
2019-01-26T01:42:47.427Z,35.10
2019-01-26T01:45:16.172Z,34.37
2019-01-26T01:47:43.376Z,38.27
2019-01-26T01:50:10.964Z,32.50
2019-01-26T01:52:38.381Z,33.17
2019-01-26T01:55:06.821Z,35.00
2019-01-26T01:57:34.292Z,29.90
2019-01-26T02:00:01.443Z,34.90
2019-01-26T02:02:28.628Z,36.40
2019-01-26T02:04:55.884Z,35.90
2019-01-26T02:07:23.586Z,32.37
2019-01-26T02:09:50.785Z,31.63
2019-01-26T02:12:17.970Z,27.40
2019-01-26T02:14:45.131Z,30.30
2019-01-26T02:17:12.325Z,28.40
2019-01-26T02:19:39.506Z,31.37
2019-01-26T02:22:06.868Z,28.60
2019-01-26T02:24:34.026Z,29.33
2019-01-26T02:27:03.816Z,29.13
2019-01-26T02:29:31.020Z,29.57
2019-01-26T02:31:58.333Z,26.70
2019-01-26T02:34:25.587Z,31.40
2019-01-26T02:36:52.802Z,28.23
2019-01-26T02:39:20.230Z,33.17
2019-01-26T02:41:47.456Z,29.27
2019-01-26T02:44:14.691Z,27.57
2019-01-26T02:46:41.912Z,27.97
2019-01-26T02:49:09.116Z,21.20
2019-01-26T02:51:36.290Z,26.27
2019-01-26T02:54:03.564Z,28.27
2019-01-26T02:56:30.788Z,23.70
2019-01-26T02:58:57.975Z,23.60
2019-01-26T03:01:25.206Z,28.20
2019-01-26T03:03:52.684Z,26.00
2019-01-26T03:06:19.949Z,28.80
2019-01-26T03:08:47.053Z,25.43
2019-01-26T03:11:14.263Z,25.33
2019-01-26T03:13:41.771Z,23.93
2019-01-26T03:16:08.983Z,28.10
2019-01-26T03:18:36.177Z,26.07
2019-01-26T03:21:03.236Z,24.13
2019-01-26T03:23:30.440Z,21.07
2019-01-26T03:25:57.545Z,21.93
2019-01-26T03:28:25.033Z,20.80
2019-01-26T03:30:52.246Z,23.07
2019-01-26T03:33:19.724Z,26.87
2019-01-26T03:35:46.793Z,20.90
2019-01-26T03:38:13.974Z,20.70
2019-01-26T03:40:41.251Z,28.30
2019-01-26T03:43:08.436Z,19.93
2019-01-26T03:45:35.802Z,20.27
2019-01-26T03:48:02.883Z,20.90
2019-01-26T03:50:29.935Z,20.33
2019-01-26T03:52:57.114Z,18.20
2019-01-26T03:55:24.349Z,18.10
2019-01-26T03:57:51.499Z,28.20
2019-01-26T04:00:20.910Z,21.30
2019-01-26T04:02:48.099Z,19.40
2019-01-26T04:05:15.763Z,17.93
2019-01-26T04:07:42.926Z,20.50
2019-01-26T04:10:10.404Z,21.43
2019-01-26T04:12:37.583Z,18.37
2019-01-26T04:15:05.791Z,17.67
2019-01-26T04:17:33.040Z,19.30
2019-01-26T04:20:00.392Z,21.53
2019-01-26T04:22:27.578Z,21.13
2019-01-26T04:24:54.768Z,23.03
2019-01-26T04:27:22.177Z,17.20
2019-01-26T04:29:49.661Z,18.37
2019-01-26T04:32:16.825Z,18.17
2019-01-26T04:34:43.981Z,19.70
2019-01-26T04:37:11.226Z,30.97
2019-01-26T04:39:38.417Z,22.23
2019-01-26T04:42:05.604Z,17.23
2019-01-26T04:44:32.921Z,21.60
2019-01-26T04:47:00.110Z,20.90
2019-01-26T04:49:27.273Z,19.73
2019-01-26T04:51:54.759Z,21.50
2019-01-26T04:54:21.940Z,18.37
2019-01-26T04:56:49.100Z,19.20
2019-01-26T04:59:16.290Z,23.33
2019-01-26T05:01:43.516Z,23.23
2019-01-26T05:04:10.740Z,19.27
2019-01-26T05:06:37.896Z,18.67
2019-01-26T05:09:07.199Z,16.57
2019-01-26T05:11:34.364Z,16.93
2019-01-26T05:14:01.484Z,16.13
2019-01-26T05:16:28.692Z,17.90
2019-01-26T05:18:55.836Z,20.33
2019-01-26T05:21:23.012Z,17.20
2019-01-26T05:23:50.115Z,15.00
2019-01-26T05:26:17.258Z,20.37
2019-01-26T05:28:44.419Z,19.83
2019-01-26T05:31:11.937Z,17.20
2019-01-26T05:33:39.088Z,16.77
2019-01-26T05:36:06.198Z,15.43
2019-01-26T05:38:33.371Z,18.50
2019-01-26T05:41:00.554Z,15.97
2019-01-26T05:43:27.746Z,17.40
2019-01-26T05:45:55.269Z,18.50
2019-01-26T05:48:22.463Z,12.63
2019-01-26T05:50:49.526Z,14.50
2019-01-26T05:53:16.709Z,21.23
2019-01-26T05:55:43.783Z,15.67
2019-01-26T05:58:10.959Z,16.97
2019-01-26T06:00:38.427Z,16.10
2019-01-26T06:03:05.513Z,17.77
2019-01-26T06:05:32.618Z,16.17
2019-01-26T06:07:59.841Z,16.90
2019-01-26T06:10:27.014Z,19.17
2019-01-26T06:12:54.248Z,16.20
2019-01-26T06:15:21.428Z,16.70
2019-01-26T06:17:54.982Z,16.23
2019-01-26T06:20:17.855Z,15.73
2019-01-26T06:22:45.079Z,16.40
2019-01-26T06:25:13.019Z,17.10
2019-01-26T06:27:40.197Z,19.77
2019-01-26T06:30:11.277Z,17.40
2019-01-26T06:32:39.227Z,16.67
2019-01-26T06:35:06.413Z,16.03
2019-01-26T06:37:33.512Z,17.50
2019-01-26T06:40:01.306Z,17.00
2019-01-26T06:42:28.767Z,17.53
2019-01-26T06:44:55.955Z,17.20
2019-01-26T06:47:23.275Z,15.60
2019-01-26T06:49:50.753Z,15.23
2019-01-26T06:52:18.135Z,14.20
2019-01-26T06:54:45.674Z,16.67
2019-01-26T06:57:12.979Z,15.03
2019-01-26T06:59:40.399Z,15.07
2019-01-26T07:02:07.665Z,18.53
2019-01-26T07:04:49.650Z,16.37
2019-01-26T07:07:18.421Z,20.20
2019-01-26T07:09:45.662Z,29.43
2019-01-26T07:12:12.860Z,16.93
2019-01-26T07:14:40.049Z,14.60
2019-01-26T07:17:07.215Z,19.63
2019-01-26T07:19:34.307Z,19.00
2019-01-26T07:22:01.572Z,17.10
2019-01-26T07:24:28.664Z,19.07
2019-01-26T07:26:55.909Z,17.07
2019-01-26T07:29:23.076Z,15.17
2019-01-26T07:31:50.360Z,18.37
2019-01-26T07:34:18.019Z,19.20
2019-01-26T07:36:45.220Z,17.67
2019-01-26T07:39:12.436Z,20.30
2019-01-26T07:41:39.697Z,19.80
2019-01-26T07:44:06.842Z,18.10
2019-01-26T07:46:34.028Z,17.80
2019-01-26T07:49:01.218Z,18.93
2019-01-26T07:51:28.404Z,20.27
2019-01-26T07:53:55.811Z,17.53
2019-01-26T07:56:22.984Z,17.60
2019-01-26T07:58:50.186Z,21.87
2019-01-26T08:01:17.261Z,21.17
2019-01-26T08:03:44.456Z,19.77
2019-01-26T08:06:11.539Z,15.10
2019-01-26T08:08:38.805Z,19.50
2019-01-26T08:11:06.029Z,15.90
2019-01-26T08:13:33.368Z,16.77
2019-01-26T08:16:00.568Z,20.77
2019-01-26T08:18:27.766Z,24.10
2019-01-26T08:20:54.832Z,18.20
2019-01-26T08:23:22.030Z,14.77
2019-01-26T08:25:49.216Z,17.03
2019-01-26T08:28:16.372Z,13.80
2019-01-26T08:30:43.874Z,18.40
2019-01-26T08:33:11.121Z,17.40
2019-01-26T08:35:38.300Z,13.40
2019-01-26T08:38:05.806Z,14.63
2019-01-26T08:40:33.184Z,16.10
2019-01-26T08:43:00.251Z,14.70
2019-01-26T08:45:27.453Z,15.23
2019-01-26T08:47:54.540Z,14.77
2019-01-26T08:50:23.120Z,14.40
2019-01-26T08:52:50.310Z,13.57
2019-01-26T08:55:18.343Z,13.67
2019-01-26T08:57:46.295Z,17.10
2019-01-26T09:00:17.332Z,14.03
2019-01-26T09:03:12.875Z,15.17
2019-01-26T09:06:01.926Z,11.77
2019-01-26T09:08:29.376Z,13.57
2019-01-26T09:10:56.960Z,13.90
2019-01-26T09:13:24.148Z,14.17
2019-01-26T09:15:51.358Z,12.10
2019-01-26T09:18:18.419Z,13.30
2019-01-26T09:20:45.878Z,15.13
2019-01-26T09:23:13.102Z,11.87
2019-01-26T09:25:40.604Z,16.07
2019-01-26T09:28:08.776Z,14.73
2019-01-26T09:30:36.028Z,11.73
2019-01-26T09:33:03.200Z,15.10
2019-01-26T09:35:30.327Z,14.10
2019-01-26T09:37:57.513Z,15.10
2019-01-26T09:40:24.611Z,14.73
2019-01-26T09:42:51.943Z,14.93
2019-01-26T09:45:19.259Z,15.37
2019-01-26T09:47:46.527Z,12.23
2019-01-26T09:50:14.235Z,14.00
2019-01-26T09:52:41.442Z,15.83
2019-01-26T09:55:09.008Z,17.03
2019-01-26T09:57:36.541Z,15.50
2019-01-26T10:00:05.401Z,11.80
2019-01-26T10:02:32.602Z,14.83
2019-01-26T10:04:59.777Z,19.90
2019-01-26T10:07:26.997Z,22.40
2019-01-26T10:09:54.160Z,13.20
2019-01-26T10:12:21.631Z,17.10
2019-01-26T10:14:48.845Z,13.13
2019-01-26T10:17:16.037Z,16.40
2019-01-26T10:19:43.208Z,10.97
2019-01-26T10:22:10.644Z,11.37
2019-01-26T10:24:37.835Z,13.33
2019-01-26T10:27:04.943Z,11.47
2019-01-26T10:29:37.455Z,13.90
2019-01-26T10:32:04.648Z,13.33
2019-01-26T10:34:31.841Z,11.53
2019-01-26T10:37:02.269Z,10.97
2019-01-26T10:39:29.510Z,12.90
2019-01-26T10:42:34.531Z,12.77
2019-01-26T10:45:02.215Z,10.20
2019-01-26T10:47:29.546Z,11.67
2019-01-26T10:49:56.777Z,12.10
2019-01-26T10:52:23.981Z,12.50
2019-01-26T10:54:51.155Z,9.97
2019-01-26T10:57:18.437Z,13.03
2019-01-26T10:59:45.639Z,10.60
2019-01-26T11:02:13.153Z,13.13
2019-01-26T11:04:40.679Z,11.70
2019-01-26T11:07:07.841Z,12.17
2019-01-26T11:09:35.046Z,10.70
2019-01-26T11:12:02.502Z,13.63
2019-01-26T11:14:29.704Z,11.57
2019-01-26T11:16:56.907Z,10.50
2019-01-26T11:19:23.994Z,12.20
2019-01-26T11:21:51.191Z,12.53
2019-01-26T11:24:18.871Z,10.43
2019-01-26T11:26:49.489Z,11.63
2019-01-26T11:29:15.212Z,10.07
2019-01-26T11:31:42.576Z,13.60
2019-01-26T11:34:09.797Z,10.33
2019-01-26T11:36:39.031Z,12.70
2019-01-26T11:39:08.289Z,11.60
2019-01-26T11:41:35.522Z,14.73
2019-01-26T11:44:02.939Z,11.57
2019-01-26T11:46:33.593Z,10.43
2019-01-26T11:49:00.821Z,9.30
2019-01-26T11:51:45.963Z,12.70
2019-01-26T11:54:13.080Z,10.90
2019-01-26T11:56:43.311Z,13.13
2019-01-26T11:59:10.529Z,11.00
2019-01-26T12:01:53.737Z,8.97
2019-01-26T12:04:25.351Z,10.80
2019-01-26T12:07:00.009Z,12.77
2019-01-26T12:09:27.198Z,10.50
2019-01-26T12:11:54.418Z,10.80
2019-01-26T12:14:21.960Z,13.73
2019-01-26T12:16:49.050Z,15.73
2019-01-26T12:19:22.347Z,10.33
2019-01-26T12:21:45.258Z,14.60
2019-01-26T12:24:12.459Z,12.40
2019-01-26T12:26:39.639Z,10.33
2019-01-26T12:29:06.878Z,12.50
2019-01-26T12:31:34.471Z,13.80
2019-01-26T12:34:01.760Z,12.40
2019-01-26T12:36:29.389Z,11.57
2019-01-26T12:38:56.870Z,11.47
2019-01-26T12:41:24.351Z,10.23
2019-01-26T12:43:53.828Z,10.97
2019-01-26T12:46:21.468Z,10.50
2019-01-26T12:48:48.684Z,8.83
2019-01-26T12:51:16.177Z,11.03
2019-01-26T12:53:43.734Z,10.23
2019-01-26T12:56:11.168Z,10.63
2019-01-26T12:58:38.312Z,10.77
2019-01-26T13:01:05.912Z,11.77
2019-01-26T13:03:33.062Z,9.70
2019-01-26T13:06:00.167Z,8.50
2019-01-26T13:08:27.668Z,9.97
2019-01-26T13:10:57.732Z,11.63
2019-01-26T13:13:24.994Z,10.80
2019-01-26T13:15:52.200Z,8.17
2019-01-26T13:18:19.551Z,8.80
2019-01-26T13:20:46.705Z,10.00
2019-01-26T13:23:13.878Z,12.93
2019-01-26T13:25:41.902Z,11.23
2019-01-26T13:28:09.448Z,12.53
2019-01-26T13:30:36.648Z,10.37
2019-01-26T13:33:04.318Z,8.77
2019-01-26T13:35:31.747Z,10.10
2019-01-26T13:37:58.944Z,9.80
2019-01-26T13:40:26.212Z,10.57
2019-01-26T13:42:53.486Z,9.73
2019-01-26T13:45:20.873Z,9.93
2019-01-26T13:47:48.027Z,10.80
2019-01-26T13:50:16.060Z,11.87
2019-01-26T13:52:43.450Z,9.33
2019-01-26T13:55:13.240Z,17.43
2019-01-26T13:57:40.446Z,7.53
2019-01-26T14:00:18.157Z,10.53
2019-01-26T14:02:45.360Z,10.13
2019-01-26T14:05:12.526Z,10.50
2019-01-26T14:07:40.031Z,13.07
2019-01-26T14:10:09.355Z,9.97
2019-01-26T14:12:36.602Z,11.03
2019-01-26T14:15:04.782Z,10.43
2019-01-26T14:17:32.024Z,7.63
2019-01-26T14:20:01.835Z,8.67
2019-01-26T14:22:29.418Z,8.67
2019-01-26T14:24:57.394Z,10.13
2019-01-26T14:27:24.622Z,6.67
2019-01-26T14:29:52.074Z,8.70
2019-01-26T14:32:19.218Z,8.13
2019-01-26T14:34:46.402Z,9.73
2019-01-26T14:37:13.579Z,7.93
2019-01-26T14:39:41.602Z,8.57
2019-01-26T14:42:09.585Z,9.47
2019-01-26T14:44:36.816Z,10.53
2019-01-26T14:47:04.091Z,9.87
2019-01-26T14:49:31.384Z,9.43
2019-01-26T14:51:58.573Z,9.40
2019-01-26T14:54:25.939Z,9.37
2019-01-26T14:56:53.063Z,10.60
2019-01-26T14:59:20.520Z,9.20
2019-01-26T15:01:47.753Z,12.53
2019-01-26T15:04:14.961Z,11.60
2019-01-26T15:06:42.144Z,10.20
2019-01-26T15:09:09.276Z,10.00
2019-01-26T15:11:41.222Z,16.60
2019-01-26T15:14:08.339Z,9.90
2019-01-26T15:16:35.579Z,10.47
2019-01-26T15:19:02.693Z,17.23
2019-01-26T15:21:29.878Z,12.50
2019-01-26T15:23:57.084Z,16.23
2019-01-26T15:26:24.258Z,10.63
2019-01-26T15:28:51.489Z,12.90
2019-01-26T15:31:18.955Z,10.27
2019-01-26T15:33:46.171Z,10.17
2019-01-26T15:36:13.359Z,9.73
2019-01-26T15:38:40.882Z,10.33
2019-01-26T15:41:08.063Z,10.80
2019-01-26T15:43:35.439Z,12.60
2019-01-26T15:46:02.605Z,7.90
2019-01-26T15:48:30.076Z,11.47
2019-01-26T15:50:57.333Z,8.40
2019-01-26T15:53:24.389Z,10.03
2019-01-26T15:55:51.534Z,10.13
2019-01-26T15:58:18.764Z,6.77
2019-01-26T16:00:46.188Z,9.30
2019-01-26T16:03:13.512Z,7.10
2019-01-26T16:05:40.951Z,7.40
2019-01-26T16:08:08.366Z,9.73
2019-01-26T16:10:36.262Z,7.27
2019-01-26T16:13:05.392Z,7.60
2019-01-26T16:15:32.848Z,8.93
2019-01-26T16:18:00.038Z,10.07
2019-01-26T16:20:27.247Z,8.20
2019-01-26T16:22:54.657Z,9.07
2019-01-26T16:25:21.862Z,9.90
2019-01-26T16:27:49.101Z,9.20
2019-01-26T16:30:18.966Z,8.80
2019-01-26T16:32:46.474Z,8.23
2019-01-26T16:35:13.788Z,8.67
2019-01-26T16:37:40.865Z,11.20
2019-01-26T16:40:10.691Z,8.53
2019-01-26T16:42:38.139Z,11.00
2019-01-26T16:45:08.259Z,10.20
2019-01-26T16:47:35.461Z,11.80
2019-01-26T16:50:04.110Z,10.67
2019-01-26T16:52:31.324Z,9.13
2019-01-26T16:54:58.558Z,11.60
2019-01-26T16:57:27.592Z,10.17
2019-01-26T16:59:55.247Z,10.80
2019-01-26T17:02:22.568Z,13.90
2019-01-26T17:04:49.841Z,11.50
2019-01-26T17:07:39.319Z,9.53
2019-01-26T17:10:08.080Z,9.37
2019-01-26T17:12:35.436Z,12.23
2019-01-26T17:15:03.619Z,11.20
2019-01-26T17:17:33.876Z,13.40
2019-01-26T17:20:01.074Z,9.10
2019-01-26T17:22:28.415Z,11.17
2019-01-26T17:24:55.792Z,13.97
2019-01-26T17:27:22.987Z,10.50
2019-01-26T17:29:50.089Z,12.70
2019-01-26T17:32:17.662Z,11.20
2019-01-26T17:34:44.786Z,12.00
2019-01-26T17:37:12.015Z,9.13
2019-01-26T17:39:39.226Z,12.37
2019-01-26T17:42:06.765Z,11.03
2019-01-26T17:44:34.284Z,10.40
2019-01-26T17:47:01.496Z,12.23
2019-01-26T17:49:28.692Z,15.73
2019-01-26T17:51:55.935Z,10.03
2019-01-26T17:54:23.152Z,12.20
2019-01-26T17:56:50.356Z,9.33
2019-01-26T17:59:17.882Z,11.77
2019-01-26T18:01:45.733Z,15.73
2019-01-26T18:04:12.927Z,17.83
2019-01-26T18:06:40.396Z,14.00
2019-01-26T18:09:07.722Z,14.17
2019-01-26T18:11:34.808Z,15.33
2019-01-26T18:14:01.999Z,11.67
2019-01-26T18:16:29.380Z,12.53
2019-01-26T18:18:56.574Z,11.83
2019-01-26T18:21:23.763Z,14.07
2019-01-26T18:23:50.959Z,16.50
2019-01-26T18:26:18.197Z,15.37
2019-01-26T18:28:45.357Z,14.80
2019-01-26T18:31:12.561Z,13.90
2019-01-26T18:33:39.917Z,14.57
2019-01-26T18:36:14.923Z,16.40
2019-01-26T18:38:42.170Z,12.67
2019-01-26T18:41:09.418Z,11.47
2019-01-26T18:43:36.618Z,13.77
2019-01-26T18:46:04.136Z,11.53
2019-01-26T18:48:32.154Z,10.97
2019-01-26T18:50:59.560Z,11.70
2019-01-26T18:53:26.686Z,12.43
2019-01-26T18:55:53.854Z,13.50
2019-01-26T18:58:20.971Z,12.03
2019-01-26T19:00:49.263Z,13.60
2019-01-26T19:04:02.155Z,12.10
2019-01-26T19:06:29.515Z,11.10
2019-01-26T19:08:56.571Z,11.13
2019-01-26T19:11:23.840Z,14.30
2019-01-26T19:13:51.249Z,13.57
2019-01-26T19:16:18.650Z,11.40
2019-01-26T19:18:45.815Z,13.53
2019-01-26T19:21:13.067Z,18.33
2019-01-26T19:23:40.872Z,12.03
2019-01-26T19:26:08.537Z,10.43
2019-01-26T19:28:35.749Z,11.30
2019-01-26T19:31:03.405Z,10.50
2019-01-26T19:33:30.563Z,10.07
2019-01-26T19:35:57.846Z,8.40
2019-01-26T19:38:25.246Z,7.63
2019-01-26T19:40:52.776Z,8.50
2019-01-26T19:43:20.021Z,8.33
2019-01-26T19:45:47.219Z,9.40
2019-01-26T19:48:14.592Z,8.30
2019-01-26T19:50:42.195Z,8.80
2019-01-26T19:53:09.733Z,9.27
2019-01-26T19:55:37.254Z,7.07
2019-01-26T19:58:04.539Z,8.10
2019-01-26T20:00:31.758Z,9.40
2019-01-26T20:02:59.359Z,7.97
2019-01-26T20:05:28.176Z,10.00
2019-01-26T20:07:55.432Z,6.87
2019-01-26T20:10:22.752Z,6.90
2019-01-26T20:12:50.359Z,8.23
2019-01-26T20:15:18.570Z,9.97
2019-01-26T20:17:46.049Z,8.37
2019-01-26T20:20:17.838Z,8.57
2019-01-26T20:22:45.255Z,8.83
2019-01-26T20:25:12.742Z,7.47
2019-01-26T20:27:40.065Z,9.97
2019-01-26T20:30:11.250Z,11.67
2019-01-26T20:32:38.573Z,9.77
2019-01-26T20:35:06.410Z,9.10
2019-01-26T20:37:33.547Z,9.40
2019-01-26T20:40:01.015Z,9.20
2019-01-26T20:42:28.221Z,6.80
2019-01-26T20:44:55.716Z,7.10
2019-01-26T20:47:22.945Z,6.47
2019-01-26T20:49:50.306Z,7.20
2019-01-26T20:52:17.541Z,7.37
2019-01-26T20:54:45.070Z,7.10
2019-01-26T20:57:12.309Z,9.20
2019-01-26T20:59:39.902Z,8.50
2019-01-26T21:02:07.227Z,9.50
2019-01-26T21:04:34.436Z,9.57
2019-01-26T21:07:01.613Z,7.17
2019-01-26T21:09:28.861Z,9.90
2019-01-26T21:11:56.451Z,8.90
2019-01-26T21:14:23.575Z,8.07
2019-01-26T21:16:51.058Z,6.73
2019-01-26T21:19:18.440Z,8.83
2019-01-26T21:21:45.630Z,6.93
2019-01-26T21:24:12.976Z,9.23
2019-01-26T21:26:40.139Z,13.20
2019-01-26T21:29:07.748Z,9.43
2019-01-26T21:31:34.920Z,10.33
2019-01-26T21:34:02.373Z,9.30
2019-01-26T21:36:29.564Z,8.83
2019-01-26T21:38:56.784Z,10.50
2019-01-26T21:41:24.578Z,9.77
2019-01-26T21:43:51.797Z,11.20
2019-01-26T21:46:18.988Z,10.47
2019-01-26T21:48:46.215Z,9.93
2019-01-26T21:51:13.428Z,8.77
2019-01-26T21:53:40.662Z,9.20
2019-01-26T21:56:07.905Z,10.80
2019-01-26T21:58:35.205Z,12.03
2019-01-26T22:01:02.320Z,10.10
2019-01-26T22:03:29.778Z,10.43
2019-01-26T22:05:56.863Z,10.93
2019-01-26T22:08:24.076Z,11.50
2019-01-26T22:10:51.295Z,8.60
2019-01-26T22:13:18.528Z,8.60
2019-01-26T22:15:45.729Z,12.30
2019-01-26T22:18:12.976Z,8.83
2019-01-26T22:20:40.060Z,15.40
2019-01-26T22:23:07.247Z,11.33
2019-01-26T22:25:34.455Z,9.07
2019-01-26T22:28:01.719Z,9.30
2019-01-26T22:30:33.170Z,12.60
2019-01-26T22:33:00.325Z,10.60
2019-01-26T22:35:27.876Z,12.00
2019-01-26T22:37:55.403Z,11.07
2019-01-26T22:40:24.615Z,10.23
2019-01-26T22:42:51.783Z,12.43
2019-01-26T22:45:19.244Z,16.83
2019-01-26T22:47:46.484Z,10.50
2019-01-26T22:50:14.696Z,10.73
2019-01-26T22:52:42.258Z,10.40
2019-01-26T22:55:10.356Z,10.80
2019-01-26T22:57:37.790Z,16.20
2019-01-26T23:00:33.747Z,15.03
2019-01-26T23:03:00.928Z,10.73
2019-01-26T23:06:04.655Z,9.83
2019-01-26T23:08:31.858Z,10.90
2019-01-26T23:11:19.509Z,10.30
2019-01-26T23:14:31.041Z,8.50
2019-01-26T23:17:17.606Z,7.63
2019-01-26T23:20:18.285Z,12.53
2019-01-26T23:23:27.370Z,10.03
2019-01-26T23:26:32.810Z,9.60
2019-01-26T23:29:43.315Z,8.47
2019-01-26T23:32:10.476Z,7.50
2019-01-26T23:34:37.688Z,8.03
2019-01-26T23:37:04.912Z,8.53
2019-01-26T23:39:32.099Z,6.57
2019-01-26T23:41:59.524Z,8.70
2019-01-26T23:44:26.738Z,7.67
2019-01-26T23:46:53.918Z,11.50
2019-01-26T23:49:21.084Z,8.67
2019-01-26T23:51:48.304Z,7.53
2019-01-26T23:54:15.530Z,8.07
2019-01-26T23:56:42.718Z,10.27
2019-01-26T23:59:09.914Z,9.43
